createdAt,value
2023-03-25T00:00:53.725Z,82.20
2023-03-25T00:03:34.708Z,82.15
2023-03-25T00:06:12.646Z,81.95
2023-03-25T00:08:48.200Z,81.93
2023-03-25T00:11:23.795Z,82.05
2023-03-25T00:13:59.077Z,81.75
2023-03-25T00:16:41.197Z,81.90
2023-03-25T00:19:17.090Z,81.78
2023-03-25T00:21:56.778Z,81.86
2023-03-25T00:24:32.651Z,81.95
2023-03-25T00:27:08.252Z,82.03
2023-03-25T00:30:01.854Z,82.16
2023-03-25T00:32:38.347Z,82.15
2023-03-25T00:35:19.886Z,82.39
2023-03-25T00:38:01.435Z,82.09
2023-03-25T00:40:39.178Z,82.43
2023-03-25T00:43:16.787Z,82.34
2023-03-25T00:45:53.978Z,82.43
2023-03-25T00:48:35.001Z,82.50
2023-03-25T00:51:14.920Z,82.54
2023-03-25T00:53:54.484Z,82.52
2023-03-25T00:56:34.086Z,82.36
2023-03-25T00:59:09.645Z,82.46
2023-03-25T01:01:46.806Z,82.48
2023-03-25T01:04:23.584Z,82.44
2023-03-25T01:06:57.768Z,82.34
2023-03-25T01:09:33.988Z,82.41
2023-03-25T01:12:10.551Z,82.33
2023-03-25T01:14:46.097Z,82.38
2023-03-25T01:17:23.498Z,82.29
2023-03-25T01:20:06.234Z,82.24
2023-03-25T01:22:43.273Z,82.35
2023-03-25T01:25:21.198Z,82.91
2023-03-25T01:27:58.413Z,82.82
2023-03-25T01:30:34.851Z,83.30
2023-03-25T01:33:10.914Z,83.14
2023-03-25T01:35:48.117Z,83.18
2023-03-25T01:38:34.069Z,83.15
2023-03-25T01:41:12.050Z,83.41
2023-03-25T01:44:19.168Z,83.17
2023-03-25T01:46:55.137Z,83.18
2023-03-25T01:49:40.088Z,83.21
2023-03-25T01:52:20.691Z,83.18
2023-03-25T01:54:59.822Z,83.40
2023-03-25T01:57:37.540Z,83.51
2023-03-25T02:00:27.505Z,83.33
2023-03-25T02:03:05.816Z,83.37
2023-03-25T02:05:51.083Z,83.94
2023-03-25T02:08:33.683Z,83.78
2023-03-25T02:11:10.277Z,84.01
2023-03-25T02:13:47.308Z,83.77
2023-03-25T02:16:34.868Z,83.84
2023-03-25T02:19:36.115Z,83.86
2023-03-25T02:26:01.159Z,84.07
2023-03-25T02:28:44.597Z,84.43
2023-03-25T02:32:02.069Z,84.46
2023-03-25T02:35:02.633Z,84.54
2023-03-25T02:38:15.787Z,84.84
2023-03-25T02:40:58.614Z,85.07
2023-03-25T02:43:44.034Z,85.04
2023-03-25T02:46:25.945Z,84.98
2023-03-25T02:49:07.745Z,85.20
2023-03-25T02:51:49.814Z,85.28
2023-03-25T02:54:28.579Z,85.38
2023-03-25T02:57:08.823Z,85.79
2023-03-25T02:59:47.793Z,85.60
2023-03-25T03:02:29.366Z,85.83
2023-03-25T03:05:23.489Z,85.97
2023-03-25T03:08:10.915Z,85.95
2023-03-25T03:10:53.701Z,85.90
2023-03-25T03:13:54.976Z,85.79
2023-03-25T03:16:43.949Z,85.69
2023-03-25T03:19:40.853Z,85.70
2023-03-25T03:22:36.377Z,85.73
2023-03-25T03:25:22.148Z,85.74
2023-03-25T03:28:05.886Z,85.61
2023-03-25T03:30:49.642Z,85.43
2023-03-25T03:33:36.449Z,85.56
2023-03-25T03:36:17.296Z,85.41
2023-03-25T03:39:00.981Z,85.25
2023-03-25T03:41:44.022Z,85.48
2023-03-25T03:44:29.839Z,85.52
2023-03-25T03:47:10.300Z,85.66
2023-03-25T03:49:51.814Z,85.65
2023-03-25T03:52:34.757Z,85.66
2023-03-25T03:55:16.312Z,86.00
2023-03-25T03:58:00.268Z,86.20
2023-03-25T04:00:39.768Z,86.19
2023-03-25T04:03:24.985Z,86.38
2023-03-25T04:06:17.555Z,86.38
2023-03-25T04:09:01.136Z,86.54
2023-03-25T04:11:43.926Z,86.45
2023-03-25T04:14:20.614Z,86.44
2023-03-25T04:16:57.505Z,86.51
2023-03-25T04:19:35.675Z,86.71
2023-03-25T04:22:13.954Z,86.56
2023-03-25T04:24:51.886Z,86.38
2023-03-25T04:27:30.204Z,86.72
2023-03-25T04:30:08.226Z,86.81
2023-03-25T04:32:48.084Z,87.03
2023-03-25T04:35:26.476Z,87.17
2023-03-25T04:38:03.626Z,87.20
2023-03-25T04:40:41.378Z,87.52
2023-03-25T04:43:21.066Z,87.82
2023-03-25T04:46:01.810Z,87.69
2023-03-25T04:48:44.395Z,87.72
2023-03-25T04:51:20.920Z,88.10
2023-03-25T04:53:59.176Z,87.96
2023-03-25T04:56:34.575Z,87.83
2023-03-25T04:59:12.644Z,88.10
2023-03-25T05:01:49.004Z,88.19
2023-03-25T05:04:25.885Z,88.08
2023-03-25T05:07:03.902Z,87.97
2023-03-25T05:09:41.944Z,88.01
2023-03-25T05:12:26.282Z,88.30
2023-03-25T05:15:02.431Z,88.07
2023-03-25T05:17:42.991Z,87.99
2023-03-25T05:20:19.068Z,88.07
2023-03-25T05:23:02.102Z,87.92
2023-03-25T05:25:39.885Z,88.10
2023-03-25T05:28:17.639Z,88.04
2023-03-25T05:31:00.299Z,88.16
2023-03-25T05:33:38.406Z,88.03
2023-03-25T05:36:14.384Z,87.94
2023-03-25T05:38:51.695Z,87.86
2023-03-25T05:41:33.869Z,87.79
2023-03-25T05:44:16.056Z,87.76
2023-03-25T05:46:53.221Z,87.83
2023-03-25T05:49:30.472Z,87.79
2023-03-25T05:52:07.094Z,87.87
2023-03-25T05:54:44.557Z,87.92
2023-03-25T05:57:19.892Z,88.13
2023-03-25T05:59:58.867Z,88.11
2023-03-25T06:02:34.986Z,88.14
2023-03-25T06:05:19.108Z,88.40
2023-03-25T06:07:58.502Z,88.57
2023-03-25T06:10:38.897Z,88.80
2023-03-25T06:13:16.084Z,88.75
2023-03-25T06:15:56.866Z,89.18
2023-03-25T06:18:35.913Z,89.13
2023-03-25T06:21:15.923Z,89.25
2023-03-25T06:23:52.420Z,89.21
2023-03-25T06:26:29.429Z,89.30
2023-03-25T06:29:06.435Z,89.15
2023-03-25T06:31:51.018Z,89.22
2023-03-25T06:34:28.868Z,89.11
2023-03-25T06:37:05.153Z,89.30
2023-03-25T06:39:40.224Z,89.18
2023-03-25T06:42:22.450Z,89.23
2023-03-25T06:45:44.538Z,89.17
2023-03-25T06:48:54.359Z,89.14
2023-03-25T06:51:51.923Z,89.19
2023-03-25T06:54:34.237Z,89.20
2023-03-25T06:57:11.060Z,89.42
2023-03-25T06:59:49.761Z,89.37
2023-03-25T07:02:26.809Z,89.78
2023-03-25T07:05:05.026Z,89.42
2023-03-25T07:07:41.666Z,89.11
2023-03-25T07:10:25.372Z,88.64
2023-03-25T07:13:06.301Z,88.34
2023-03-25T07:15:42.432Z,88.07
2023-03-25T07:18:18.983Z,87.99
2023-03-25T07:20:57.584Z,87.92
2023-03-25T07:23:34.529Z,87.87
2023-03-25T07:26:19.788Z,87.40
2023-03-25T07:28:58.723Z,87.11
2023-03-25T07:31:37.683Z,86.71
2023-03-25T07:34:17.860Z,86.82
2023-03-25T07:36:59.747Z,86.50
2023-03-25T07:39:39.635Z,86.29
2023-03-25T07:42:18.985Z,86.15
2023-03-25T07:45:22.739Z,85.83
2023-03-25T07:48:02.164Z,85.79
2023-03-25T07:50:41.152Z,85.62
2023-03-25T07:53:18.336Z,85.34
2023-03-25T07:55:56.111Z,85.06
2023-03-25T07:58:31.643Z,85.04
2023-03-25T08:01:08.377Z,84.96
2023-03-25T08:03:48.410Z,84.57
2023-03-25T08:06:31.685Z,84.18
2023-03-25T08:09:08.010Z,84.16
2023-03-25T08:11:46.835Z,83.87
2023-03-25T08:14:24.522Z,83.70
2023-03-25T08:17:01.555Z,83.41
2023-03-25T08:19:40.819Z,83.13
2023-03-25T08:22:19.128Z,82.89
2023-03-25T08:24:55.301Z,82.55
2023-03-25T08:27:33.397Z,82.10
2023-03-25T08:30:12.984Z,81.78
2023-03-25T08:32:59.553Z,81.88
2023-03-25T08:35:34.240Z,81.77
2023-03-25T08:38:14.319Z,81.25
2023-03-25T08:40:51.596Z,80.75
2023-03-25T08:43:28.602Z,80.69
2023-03-25T08:46:14.111Z,80.21
2023-03-25T08:48:51.052Z,80.26
2023-03-25T08:51:31.381Z,80.37
2023-03-25T08:54:09.320Z,80.27
2023-03-25T08:56:45.895Z,80.01
2023-03-25T08:59:24.361Z,80.00
2023-03-25T09:02:04.413Z,80.06
2023-03-25T09:04:41.979Z,80.06
2023-03-25T09:07:21.885Z,80.01
2023-03-25T09:09:59.521Z,79.66
2023-03-25T09:12:35.072Z,80.05
2023-03-25T09:15:20.785Z,80.10
2023-03-25T09:17:57.124Z,79.42
2023-03-25T09:20:42.289Z,79.20
2023-03-25T09:23:19.097Z,78.75
2023-03-25T09:26:14.820Z,78.18
2023-03-25T09:28:56.832Z,78.26
2023-03-25T09:31:30.307Z,77.97
2023-03-25T09:34:10.518Z,77.76
2023-03-25T09:36:46.890Z,77.97
2023-03-25T09:39:31.719Z,77.39
2023-03-25T09:42:34.134Z,77.39
2023-03-25T09:45:25.916Z,77.58
2023-03-25T09:48:06.458Z,77.71
2023-03-25T09:50:46.403Z,77.63
2023-03-25T09:53:34.034Z,77.34
2023-03-25T09:56:15.733Z,77.36
2023-03-25T09:58:56.124Z,77.58
2023-03-25T10:01:43.213Z,77.12
2023-03-25T10:04:47.419Z,76.92
2023-03-25T10:07:44.425Z,76.84
2023-03-25T10:10:29.174Z,76.70
2023-03-25T10:13:34.320Z,76.52
2023-03-25T10:16:24.521Z,75.69
2023-03-25T10:19:15.646Z,75.48
2023-03-25T10:22:05.363Z,75.14
2023-03-25T10:24:48.284Z,75.18
2023-03-25T10:27:29.748Z,75.14
2023-03-25T10:30:21.924Z,74.92
2023-03-25T10:33:00.816Z,75.24
2023-03-25T10:35:44.368Z,75.44
2023-03-25T10:38:22.032Z,75.07
2023-03-25T10:41:12.740Z,74.92
2023-03-25T10:43:51.045Z,74.59
2023-03-25T10:46:34.042Z,74.22
2023-03-25T10:49:14.686Z,73.85
2023-03-25T10:51:54.316Z,73.33
2023-03-25T10:54:33.276Z,73.22
2023-03-25T10:57:22.536Z,73.56
2023-03-25T11:00:07.705Z,73.10
2023-03-25T11:02:43.949Z,73.21
2023-03-25T11:05:22.705Z,73.50
2023-03-25T11:08:11.559Z,73.40
2023-03-25T11:10:57.980Z,73.93
2023-03-25T11:13:38.594Z,74.15
2023-03-25T11:16:17.490Z,74.29
2023-03-25T11:18:54.730Z,74.66
2023-03-25T11:21:39.599Z,74.74
2023-03-25T11:24:25.383Z,74.91
2023-03-25T11:27:09.084Z,74.79
2023-03-25T11:29:54.344Z,74.58
2023-03-25T11:32:37.303Z,74.29
2023-03-25T11:35:24.138Z,74.03
2023-03-25T11:38:21.100Z,73.52
2023-03-25T11:40:58.979Z,73.76
2023-03-25T11:43:38.446Z,73.43
2023-03-25T11:46:20.519Z,73.25
2023-03-25T11:48:59.376Z,73.40
2023-03-25T11:51:37.809Z,73.60
2023-03-25T11:54:19.483Z,73.66
2023-03-25T11:57:00.457Z,73.12
2023-03-25T11:59:45.661Z,72.86
2023-03-25T12:02:31.653Z,72.52
2023-03-25T12:05:18.062Z,72.52
2023-03-25T12:08:02.266Z,72.33
2023-03-25T12:11:13.269Z,72.12
2023-03-25T12:14:08.386Z,72.24
2023-03-25T12:16:53.357Z,71.50
2023-03-25T12:19:39.410Z,70.83
2023-03-25T12:22:52.010Z,70.69
2023-03-25T12:25:46.947Z,71.02
2023-03-25T12:28:56.538Z,70.70
2023-03-25T12:31:49.896Z,70.39
2023-03-25T12:34:37.686Z,70.34
2023-03-25T12:37:30.458Z,70.35
2023-03-25T12:40:29.895Z,69.91
2023-03-25T12:43:12.835Z,69.52
2023-03-25T12:46:00.485Z,69.62
2023-03-25T12:48:51.248Z,68.88
2023-03-25T12:51:46.607Z,68.73
2023-03-25T12:54:45.917Z,68.45
2023-03-25T12:57:40.685Z,67.81
2023-03-25T13:00:27.206Z,68.03
2023-03-25T13:03:35.957Z,67.57
2023-03-25T13:06:23.448Z,67.37
2023-03-25T13:09:04.651Z,67.10
2023-03-25T13:11:44.223Z,67.35
2023-03-25T13:14:27.451Z,66.88
2023-03-25T13:17:06.997Z,66.50
2023-03-25T13:19:47.487Z,65.64
2023-03-25T13:22:27.386Z,63.58
2023-03-25T13:25:08.841Z,65.94
2023-03-25T13:27:49.610Z,68.70
2023-03-25T13:30:34.862Z,70.42
2023-03-25T13:33:15.993Z,71.78
2023-03-25T13:36:00.400Z,72.86
2023-03-25T13:38:41.382Z,73.62
2023-03-25T13:41:19.872Z,74.15
2023-03-25T13:44:10.356Z,74.51
2023-03-25T13:46:52.597Z,74.95
2023-03-25T13:49:34.626Z,75.35
2023-03-25T13:52:13.343Z,75.99
2023-03-25T13:54:53.825Z,76.55
2023-03-25T13:57:48.080Z,77.34
2023-03-25T14:00:53.133Z,77.96
2023-03-25T14:03:57.805Z,78.51
2023-03-25T14:06:52.608Z,78.64
2023-03-25T14:10:08.739Z,78.91
2023-03-25T14:12:48.857Z,79.02
2023-03-25T14:15:31.874Z,78.81
2023-03-25T14:18:16.272Z,78.87
2023-03-25T14:20:53.709Z,78.75
2023-03-25T14:23:35.994Z,78.75
2023-03-25T14:26:14.552Z,78.79
2023-03-25T14:28:52.287Z,78.90
2023-03-25T14:31:35.249Z,78.81
2023-03-25T14:34:39.340Z,79.09
2023-03-25T14:37:53.231Z,79.09
2023-03-25T14:41:03.434Z,78.96
2023-03-25T14:43:47.874Z,79.34
2023-03-25T14:46:37.589Z,79.36
2023-03-25T14:49:30.700Z,79.41
2023-03-25T14:52:06.992Z,79.64
2023-03-25T14:54:52.040Z,79.84
2023-03-25T14:57:48.428Z,80.29
2023-03-25T15:00:31.203Z,80.53
2023-03-25T15:03:12.949Z,80.66
2023-03-25T15:05:57.058Z,80.67
2023-03-25T15:08:42.252Z,80.54
2023-03-25T15:11:29.703Z,80.34
2023-03-25T15:14:09.611Z,80.17
2023-03-25T15:17:12.795Z,80.27
2023-03-25T15:20:31.918Z,80.27
2023-03-25T15:23:36.428Z,80.29
2023-03-25T15:26:17.270Z,80.10
2023-03-25T15:29:23.184Z,79.97
2023-03-25T15:32:14.347Z,80.00
2023-03-25T15:35:08.064Z,80.04
2023-03-25T15:38:09.997Z,79.99
2023-03-25T15:41:00.155Z,80.02
2023-03-25T15:44:11.646Z,79.84
2023-03-25T15:47:17.004Z,79.70
2023-03-25T15:50:32.348Z,79.81
2023-03-25T15:54:02.785Z,79.70
2023-03-25T15:56:40.016Z,79.67
2023-03-25T15:59:30.929Z,79.74
2023-03-25T16:02:14.791Z,79.69
2023-03-25T16:04:55.396Z,79.70
2023-03-25T16:07:33.207Z,79.60
2023-03-25T16:10:19.717Z,79.64
2023-03-25T16:12:55.630Z,79.59
2023-03-25T16:15:34.055Z,79.41
2023-03-25T16:18:12.520Z,79.30
2023-03-25T16:20:56.961Z,79.25
2023-03-25T16:23:34.105Z,78.87
2023-03-25T16:26:16.762Z,78.18
2023-03-25T16:28:53.468Z,77.94
2023-03-25T16:31:43.605Z,77.61
2023-03-25T16:34:20.843Z,77.05
2023-03-25T16:36:58.811Z,76.52
2023-03-25T16:39:38.864Z,76.13
2023-03-25T16:42:21.487Z,76.00
2023-03-25T16:45:07.460Z,75.68
2023-03-25T16:47:48.305Z,75.50
2023-03-25T16:50:31.753Z,75.56
2023-03-25T16:53:08.664Z,75.15
2023-03-25T16:55:51.455Z,75.03
2023-03-25T16:58:37.663Z,74.84
2023-03-25T17:01:17.604Z,74.72
2023-03-25T17:04:08.165Z,74.81
2023-03-25T17:06:53.215Z,74.76
2023-03-25T17:09:35.229Z,74.87
2023-03-25T17:12:26.984Z,75.01
2023-03-25T17:15:10.267Z,74.92
2023-03-25T17:18:01.548Z,75.04
2023-03-25T17:20:42.074Z,75.08
2023-03-25T17:23:37.179Z,75.20
2023-03-25T17:26:16.216Z,75.30
2023-03-25T17:29:10.618Z,75.38
2023-03-25T17:31:55.747Z,75.57
2023-03-25T17:34:39.600Z,75.59
2023-03-25T17:37:17.047Z,75.81
2023-03-25T17:39:54.988Z,75.90
2023-03-25T17:42:33.928Z,76.10
2023-03-25T17:45:19.906Z,76.22
2023-03-25T17:47:55.733Z,76.38
2023-03-25T17:50:35.530Z,76.64
2023-03-25T17:53:14.213Z,76.74
2023-03-25T17:55:52.817Z,76.83
2023-03-25T17:58:29.035Z,76.96
2023-03-25T18:01:13.708Z,77.09
2023-03-25T18:03:51.606Z,77.28
2023-03-25T18:06:26.915Z,77.24
2023-03-25T18:09:07.384Z,77.27
2023-03-25T18:11:54.925Z,77.54
2023-03-25T18:14:30.686Z,77.47
2023-03-25T18:17:11.830Z,77.89
2023-03-25T18:19:47.948Z,77.83
2023-03-25T18:22:24.684Z,78.18
2023-03-25T18:25:05.407Z,78.36
2023-03-25T18:27:44.283Z,78.44
2023-03-25T18:30:30.915Z,78.60
2023-03-25T18:33:05.999Z,78.46
2023-03-25T18:35:40.680Z,78.66
2023-03-25T18:38:20.563Z,78.65
2023-03-25T18:40:56.031Z,78.64
2023-03-25T18:43:31.465Z,78.69
2023-03-25T18:46:15.850Z,78.58
2023-03-25T18:49:02.530Z,78.58
2023-03-25T18:51:37.568Z,78.56
2023-03-25T18:54:12.117Z,78.48
2023-03-25T18:56:51.419Z,78.34
2023-03-25T18:59:27.284Z,78.43
2023-03-25T19:02:02.040Z,78.38
2023-03-25T19:04:54.229Z,78.54
2023-03-25T19:07:41.561Z,78.48
2023-03-25T19:10:22.679Z,78.61
2023-03-25T19:13:01.053Z,78.59
2023-03-25T19:15:37.501Z,78.51
2023-03-25T19:18:19.764Z,78.42
2023-03-25T19:20:56.319Z,78.46
2023-03-25T19:23:36.590Z,78.33
2023-03-25T19:26:13.580Z,78.42
2023-03-25T19:28:50.118Z,78.19
2023-03-25T19:31:26.234Z,78.43
2023-03-25T19:34:01.925Z,78.37
2023-03-25T19:36:39.932Z,78.33
2023-03-25T19:39:16.187Z,78.26
2023-03-25T19:41:59.216Z,78.34
2023-03-25T19:44:34.433Z,78.30
2023-03-25T19:47:10.912Z,78.34
2023-03-25T19:49:49.616Z,78.24
2023-03-25T19:52:25.341Z,78.26
2023-03-25T19:55:01.548Z,78.34
2023-03-25T19:57:37.389Z,78.28
2023-03-25T20:00:23.287Z,78.32
2023-03-25T20:03:02.640Z,78.45
2023-03-25T20:05:41.581Z,78.53
2023-03-25T20:08:17.281Z,78.81
2023-03-25T20:10:56.772Z,79.18
2023-03-25T20:13:31.493Z,79.19
2023-03-25T20:16:07.746Z,79.56
2023-03-25T20:18:46.396Z,79.57
2023-03-25T20:21:23.789Z,79.69
2023-03-25T20:23:59.059Z,79.51
2023-03-25T20:26:34.171Z,79.52
2023-03-25T20:29:10.695Z,79.51
2023-03-25T20:31:45.360Z,79.48
2023-03-25T20:34:22.460Z,79.43
2023-03-25T20:37:02.305Z,79.40
2023-03-25T20:39:36.624Z,79.54
2023-03-25T20:42:12.733Z,79.53
2023-03-25T20:44:52.871Z,79.52
2023-03-25T20:47:27.666Z,79.75
2023-03-25T20:50:05.393Z,79.75
2023-03-25T20:52:40.787Z,79.92
2023-03-25T20:55:14.893Z,80.02
2023-03-25T20:57:50.272Z,80.00
2023-03-25T21:00:27.037Z,80.30
2023-03-25T21:03:02.688Z,80.42
2023-03-25T21:05:48.017Z,80.57
2023-03-25T21:08:23.338Z,80.66
2023-03-25T21:10:59.878Z,80.72
2023-03-25T21:13:35.718Z,80.81
2023-03-25T21:16:12.319Z,80.91
2023-03-25T21:18:51.025Z,80.97
2023-03-25T21:21:26.632Z,81.04
2023-03-25T21:24:04.282Z,81.23
2023-03-25T21:26:37.927Z,81.39
2023-03-25T21:29:12.270Z,81.47
2023-03-25T21:31:48.312Z,81.31
2023-03-25T21:34:23.212Z,81.54
2023-03-25T21:36:59.437Z,81.53
2023-03-25T21:39:39.040Z,81.49
2023-03-25T21:42:13.932Z,81.39
2023-03-25T21:44:50.662Z,81.31
2023-03-25T21:47:26.937Z,81.52
2023-03-25T21:50:02.265Z,81.34
2023-03-25T21:52:37.872Z,81.31
2023-03-25T21:55:14.790Z,81.35
2023-03-25T21:57:50.324Z,81.46
2023-03-25T22:00:28.055Z,81.17
2023-03-25T22:03:03.229Z,81.39
2023-03-25T22:05:39.023Z,81.49
2023-03-25T22:08:14.509Z,81.51
2023-03-25T22:10:51.163Z,81.57
2023-03-25T22:13:27.232Z,81.90
2023-03-25T22:16:03.993Z,81.70
2023-03-25T22:18:39.605Z,81.72
2023-03-25T22:21:18.272Z,81.80
2023-03-25T22:23:58.924Z,81.82
2023-03-25T22:26:36.304Z,82.03
2023-03-25T22:29:14.239Z,81.81
2023-03-25T22:31:51.011Z,81.92
2023-03-25T22:34:28.918Z,82.05
2023-03-25T22:37:04.765Z,82.15
2023-03-25T22:39:41.093Z,82.09
2023-03-25T22:42:17.315Z,82.16
2023-03-25T22:44:52.777Z,82.41
2023-03-25T22:47:28.703Z,82.66
2023-03-25T22:50:03.676Z,82.74
2023-03-25T22:52:41.558Z,82.45
2023-03-25T22:55:17.317Z,82.68
2023-03-25T22:57:51.353Z,82.68
2023-03-25T23:00:30.269Z,82.55
2023-03-25T23:03:06.605Z,82.59
2023-03-25T23:05:40.893Z,82.54
2023-03-25T23:08:17.275Z,82.45
2023-03-25T23:10:54.915Z,82.73
2023-03-25T23:13:31.099Z,82.74
2023-03-25T23:16:08.522Z,82.90
2023-03-25T23:18:43.534Z,82.84
2023-03-25T23:21:20.563Z,82.97
2023-03-25T23:24:00.746Z,82.95
2023-03-25T23:26:40.431Z,83.05
2023-03-25T23:29:18.242Z,82.90
2023-03-25T23:31:53.297Z,82.96
2023-03-25T23:34:30.708Z,82.85
2023-03-25T23:37:06.768Z,83.10
2023-03-25T23:39:42.208Z,83.07
2023-03-25T23:42:17.053Z,83.12
2023-03-25T23:44:53.625Z,83.43
2023-03-25T23:47:27.307Z,83.29
2023-03-25T23:50:02.279Z,83.17
2023-03-25T23:52:36.605Z,83.21
2023-03-25T23:55:15.624Z,83.33
2023-03-25T23:57:51.269Z,83.39
